createdAt,value
2022-09-28T00:01:33.547Z,0.6
2022-09-28T00:04:33.470Z,0.9
2022-09-28T00:07:33.485Z,0.6
2022-09-28T00:10:33.496Z,0.4
2022-09-28T00:13:33.513Z,0.45
2022-09-28T00:16:33.595Z,0.15
2022-09-28T00:19:33.511Z,0.7
2022-09-28T00:22:33.500Z,1.05
2022-09-28T00:25:33.472Z,1
2022-09-28T00:28:33.558Z,0.8
2022-09-28T00:31:33.676Z,0.8
2022-09-28T00:34:33.491Z,1.2
2022-09-28T00:37:33.536Z,1.1
2022-09-28T00:40:33.627Z,1.2
2022-09-28T00:43:33.481Z,1.8
2022-09-28T00:46:33.517Z,1.6
2022-09-28T00:49:33.588Z,1.2
2022-09-28T00:52:33.470Z,0.5
2022-09-28T00:55:33.475Z,1.15
2022-09-28T00:58:33.535Z,1.4
2022-09-28T01:01:33.531Z,1.35
2022-09-28T01:04:33.528Z,1.25
2022-09-28T01:07:33.483Z,1.2
2022-09-28T01:10:33.511Z,1.6
2022-09-28T01:13:33.545Z,0.85
2022-09-28T01:16:33.665Z,0.65
2022-09-28T01:19:33.557Z,1.6
2022-09-28T01:22:33.542Z,1.15
2022-09-28T01:25:33.595Z,0.95
2022-09-28T01:28:33.517Z,0.8
2022-09-28T01:31:33.698Z,0.75
2022-09-28T01:34:33.577Z,1
2022-09-28T01:37:33.531Z,1.25
2022-09-28T01:40:33.648Z,0.95
2022-09-28T01:43:33.553Z,0.9
2022-09-28T01:46:33.586Z,0.55
2022-09-28T01:49:33.551Z,1.55
2022-09-28T01:52:33.646Z,0.55
2022-09-28T01:55:33.581Z,0.3
2022-09-28T01:58:33.582Z,0.1
2022-09-28T02:01:33.598Z,0.6
2022-09-28T02:04:33.596Z,0.6
2022-09-28T02:07:33.551Z,0.95
2022-09-28T02:10:33.660Z,1.9
2022-09-28T02:13:33.591Z,1.25
2022-09-28T02:16:33.697Z,1.2
2022-09-28T02:19:33.563Z,0.85
2022-09-28T02:22:33.576Z,0.9
2022-09-28T02:25:33.603Z,0.95
2022-09-28T02:28:33.630Z,0.8
2022-09-28T02:31:33.882Z,0.75
2022-09-28T02:34:33.627Z,1.45
2022-09-28T02:37:33.613Z,1
2022-09-28T02:40:33.696Z,0.7
2022-09-28T02:43:33.622Z,0.8
2022-09-28T02:46:33.606Z,0.9
2022-09-28T02:49:33.782Z,0.7
2022-09-28T02:52:33.602Z,1.1
2022-09-28T02:55:33.623Z,1.05
2022-09-28T02:58:33.591Z,1.1
2022-09-28T03:01:33.676Z,1.55
2022-09-28T03:04:33.817Z,1.7
2022-09-28T03:07:33.576Z,0.55
2022-09-28T03:10:33.632Z,1.4
2022-09-28T03:13:33.598Z,2
2022-09-28T03:16:33.734Z,1.8
2022-09-28T03:19:33.641Z,0.95
2022-09-28T03:22:33.616Z,1.95
2022-09-28T03:25:33.631Z,1.1
2022-09-28T03:28:33.647Z,1.4
2022-09-28T03:31:33.814Z,1.3
2022-09-28T03:34:33.646Z,1.1
2022-09-28T03:37:33.666Z,1.15
2022-09-28T03:40:33.763Z,1.2
2022-09-28T03:43:33.652Z,1.9
2022-09-28T03:46:33.645Z,1.45
2022-09-28T03:49:33.654Z,0.8
2022-09-28T03:52:33.656Z,1.5
2022-09-28T03:55:33.631Z,1.35
2022-09-28T03:58:33.637Z,1.4
2022-09-28T04:01:33.849Z,1.35
2022-09-28T04:04:33.801Z,1.7
2022-09-28T04:07:33.693Z,0.95
2022-09-28T04:10:33.706Z,1.5
2022-09-28T04:13:33.721Z,0.8
2022-09-28T04:16:33.831Z,1.45
2022-09-28T04:19:33.744Z,1.45
2022-09-28T04:22:33.726Z,1.45
2022-09-28T04:25:33.748Z,1.5
2022-09-28T04:28:33.709Z,1.05
2022-09-28T04:31:33.787Z,1.25
2022-09-28T04:34:40.756Z,0.95
2022-09-28T04:37:33.770Z,0.9
2022-09-28T04:40:33.760Z,2.1
2022-09-28T04:43:33.713Z,1.15
2022-09-28T04:46:33.709Z,1.25
2022-09-28T04:49:33.704Z,1.75
2022-09-28T04:52:33.754Z,0.95
2022-09-28T04:55:35.187Z,1.55
2022-09-28T04:58:36.496Z,0.75
2022-09-28T05:01:36.509Z,0.7
2022-09-28T05:04:34.645Z,0.85
2022-09-28T05:07:33.726Z,1
2022-09-28T05:10:33.737Z,1.7
2022-09-28T05:13:33.747Z,1.2
2022-09-28T05:16:33.943Z,1.6
2022-09-28T05:19:33.744Z,1.65
2022-09-28T05:22:33.730Z,1.15
2022-09-28T05:25:33.726Z,2.05
2022-09-28T05:28:33.712Z,1.95
2022-09-28T05:31:33.839Z,1.5
2022-09-28T05:34:33.712Z,1.1
2022-09-28T05:37:33.758Z,1.45
2022-09-28T05:40:33.857Z,1.6
2022-09-28T05:43:33.766Z,1.1
2022-09-28T05:46:33.786Z,0.85
2022-09-28T05:49:33.762Z,1.55
2022-09-28T05:52:33.763Z,1.85
2022-09-28T05:55:33.875Z,1.35
2022-09-28T05:58:33.749Z,1.4
2022-09-28T06:01:33.916Z,2.1
2022-09-28T06:04:33.836Z,0.9
2022-09-28T06:07:33.788Z,1.3
2022-09-28T06:10:33.717Z,1.2
2022-09-28T06:13:33.864Z,0.5
2022-09-28T06:16:33.926Z,1.65
2022-09-28T06:19:33.772Z,1.3
2022-09-28T06:22:33.812Z,1
2022-09-28T06:25:33.793Z,1
2022-09-28T06:28:33.842Z,0.7
2022-09-28T06:31:33.774Z,0.9
2022-09-28T06:34:33.784Z,1.05
2022-09-28T06:37:33.785Z,1.1
2022-09-28T06:40:33.872Z,0.8
2022-09-28T06:43:35.453Z,1.25
2022-09-28T06:46:33.933Z,1.25
2022-09-28T06:49:33.856Z,1.5
2022-09-28T06:52:33.818Z,1.45
2022-09-28T06:55:33.794Z,1.3
2022-09-28T06:58:33.826Z,2.35
2022-09-28T07:01:33.966Z,1.65
2022-09-28T07:04:33.786Z,1.4
2022-09-28T07:07:33.813Z,0.95
2022-09-28T07:10:33.859Z,1.05
2022-09-28T07:13:54.189Z,1.25
2022-09-28T07:17:02.360Z,1.6
2022-09-28T07:19:36.633Z,1.15
2022-09-28T07:22:43.221Z,1.35
2022-09-28T07:25:33.839Z,1.6
2022-09-28T07:28:33.809Z,1.4
2022-09-28T07:31:33.876Z,1.2
2022-09-28T07:34:33.803Z,2.1
2022-09-28T07:37:33.872Z,1.6
2022-09-28T07:40:33.969Z,1.2
2022-09-28T07:43:33.874Z,1.25
2022-09-28T07:46:33.867Z,1.55
2022-09-28T07:49:33.878Z,1.85
2022-09-28T07:52:33.875Z,2.2
2022-09-28T07:55:33.889Z,1.55
2022-09-28T07:58:33.872Z,1.05
2022-09-28T08:01:33.973Z,1.7
2022-09-28T08:04:33.824Z,1.35
2022-09-28T08:07:33.851Z,1.55
2022-09-28T08:10:33.921Z,1.35
2022-09-28T08:13:33.875Z,1.8
2022-09-28T08:16:34.026Z,1.45
2022-09-28T08:19:33.893Z,1
2022-09-28T08:22:33.874Z,0.95
2022-09-28T08:25:33.885Z,1.15
2022-09-28T08:28:33.860Z,1.4
2022-09-28T08:31:33.885Z,1.6
2022-09-28T08:34:33.868Z,1.4
2022-09-28T08:37:33.905Z,1.7
2022-09-28T08:40:33.989Z,1.45
2022-09-28T08:43:33.907Z,1.65
2022-09-28T08:46:33.980Z,1.85
2022-09-28T08:49:34.364Z,1.65
2022-09-28T08:52:33.962Z,1.9
2022-09-28T08:55:33.915Z,1.55
2022-09-28T08:58:33.908Z,1.4
2022-09-28T09:01:34.011Z,1.15
2022-09-28T09:04:33.957Z,1.2
2022-09-28T09:07:33.942Z,1.35
2022-09-28T09:10:33.939Z,1.7
2022-09-28T09:13:33.915Z,1.25
2022-09-28T09:16:34.031Z,1.15
2022-09-28T09:19:33.921Z,1.5
2022-09-28T09:22:33.962Z,1.2
2022-09-28T09:25:38.959Z,1.55
2022-09-28T09:28:33.902Z,1.15
2022-09-28T09:31:33.948Z,1.65
2022-09-28T09:34:33.944Z,1.5
2022-09-28T09:37:33.964Z,1.4
2022-09-28T09:40:34.066Z,1
2022-09-28T09:43:34.072Z,1.35
2022-09-28T09:46:33.967Z,1.35
2022-09-28T09:49:33.923Z,1.25
2022-09-28T09:52:35.589Z,1.25
2022-09-28T09:55:34.133Z,1.9
2022-09-28T09:58:33.935Z,1.55
2022-09-28T10:01:34.076Z,1.25
2022-09-28T10:04:33.934Z,1.8
2022-09-28T10:07:33.938Z,1.5
2022-09-28T10:10:34.008Z,1.5
2022-09-28T10:13:33.969Z,1.05
2022-09-28T10:16:34.137Z,0.8
2022-09-28T10:19:34.003Z,1.15
2022-09-28T10:22:34.112Z,1.05
2022-09-28T10:25:33.994Z,1.5
2022-09-28T10:28:33.993Z,1.3
2022-09-28T10:31:34.009Z,1.3
2022-09-28T10:34:33.990Z,1.6
2022-09-28T10:37:33.983Z,1.55
2022-09-28T10:40:34.093Z,1.45
2022-09-28T10:43:33.983Z,1.3
2022-09-28T10:46:34.157Z,0.8
2022-09-28T10:49:34.069Z,2.25
2022-09-28T10:52:33.978Z,1.7
2022-09-28T10:55:33.997Z,1.2
2022-09-28T10:58:34.054Z,1.25
2022-09-28T11:01:34.102Z,1.75
2022-09-28T11:04:34.053Z,1.3
2022-09-28T11:07:34.295Z,1.35
2022-09-28T11:10:34.039Z,1.1
2022-09-28T12:00:20.586Z,1.55
2022-09-28T12:03:18.157Z,1.5
2022-09-28T12:06:17.939Z,1.5
2022-09-28T12:09:18.026Z,1.15
2022-09-28T12:12:17.928Z,1.75
2022-09-28T12:15:17.930Z,2
2022-09-28T12:18:18.022Z,1.75
2022-09-28T12:21:17.895Z,2.1
2022-09-28T12:24:18.013Z,2.15
2022-09-28T12:27:18.062Z,1.65
2022-09-28T12:30:17.984Z,2.15
2022-09-28T12:33:17.979Z,2.05
2022-09-28T12:36:18.002Z,1.85
2022-09-28T12:39:31.263Z,2.4
2022-09-28T12:42:18.090Z,2.6
2022-09-28T12:45:18.080Z,1.65
2022-09-28T12:48:18.071Z,2.1
2022-09-28T12:51:18.113Z,2.05
2022-09-28T12:54:18.033Z,1.3
2022-09-28T12:57:18.065Z,1.55
2022-09-28T13:00:18.018Z,1.45
2022-09-28T13:03:17.975Z,1.2
2022-09-28T13:06:17.973Z,0.9
2022-09-28T13:09:18.131Z,1.55
2022-09-28T13:12:18.055Z,1.4
2022-09-28T13:15:18.078Z,2
2022-09-28T13:18:17.998Z,1.4
2022-09-28T13:21:18.024Z,1.4
2022-09-28T13:24:32.036Z,1.7
2022-09-28T13:27:18.004Z,0.9
2022-09-28T13:30:18.069Z,1.45
2022-09-28T13:33:17.990Z,1.2
2022-09-28T13:36:17.993Z,0.9
2022-09-28T13:42:18.048Z,1.35
2022-09-28T13:45:18.024Z,1.05
2022-09-28T13:48:18.102Z,1.4
2022-09-28T13:51:18.110Z,0.95
2022-09-28T13:54:18.241Z,1.4
2022-09-28T13:57:18.089Z,1.5
2022-09-28T14:00:18.085Z,1.55
2022-09-28T14:03:18.091Z,1.3
2022-09-28T14:06:18.190Z,1.3
2022-09-28T14:09:18.264Z,0.75
2022-09-28T14:12:18.044Z,0.75
2022-09-28T14:15:18.088Z,0.9
2022-09-28T14:18:18.096Z,0.5
2022-09-28T14:21:18.089Z,0.55
2022-09-28T14:24:19.286Z,0.7
2022-09-28T14:27:20.863Z,0.7
2022-09-28T14:30:18.274Z,0.85
2022-09-28T14:33:18.392Z,1.05
2022-09-28T14:36:19.392Z,1.05
2022-09-28T14:39:18.134Z,1.15
2022-09-28T14:42:18.096Z,1.1
2022-09-28T14:45:18.080Z,0.65
2022-09-28T14:48:18.064Z,1.2
2022-09-28T14:51:18.078Z,0.5
2022-09-28T14:54:18.183Z,0.65
2022-09-28T14:57:18.070Z,0.75
2022-09-28T15:00:18.061Z,0.7
2022-09-28T15:03:18.058Z,0.7
2022-09-28T15:06:18.145Z,0.6
2022-09-28T15:09:18.058Z,0.9
2022-09-28T15:12:18.092Z,0.5
2022-09-28T15:15:18.233Z,0.15
2022-09-28T15:18:18.282Z,0.3
2022-09-28T15:21:18.177Z,0.5
2022-09-28T15:24:18.253Z,0.25
2022-09-28T15:27:18.286Z,0.65
2022-09-28T15:30:18.246Z,0.25
2022-09-28T15:33:18.259Z,0.15
2022-09-28T15:36:18.193Z,0.25
2022-09-28T15:39:18.252Z,1.4
2022-09-28T15:42:18.159Z,0.6
2022-09-28T15:45:18.139Z,0.65
2022-09-28T15:48:18.182Z,0.2
2022-09-28T15:54:18.202Z,0.05
2022-09-28T15:57:18.125Z,0.45
2022-09-28T16:01:52.522Z,0.3
2022-09-28T16:03:28.948Z,0.3
2022-09-28T16:06:27.130Z,0.2
2022-09-28T16:09:24.619Z,0.4
2022-09-28T16:12:19.876Z,0.45
2022-09-28T16:15:20.675Z,0.25
2022-09-28T16:18:26.772Z,0.45
2022-09-28T16:21:22.834Z,0.1
2022-09-28T16:24:22.219Z,1.2
2022-09-28T16:27:19.559Z,1.3
2022-09-28T16:30:18.126Z,0.65
2022-09-28T16:33:18.175Z,0.75
2022-09-28T16:36:18.167Z,0.75
2022-09-28T16:39:18.351Z,0.5
2022-09-28T16:42:18.175Z,0.35
2022-09-28T16:45:18.139Z,0.15
2022-09-28T16:48:18.207Z,0.25
2022-09-28T16:51:18.150Z,0.35
2022-09-28T16:54:18.181Z,0.25
2022-09-28T16:57:18.143Z,0.25
2022-09-28T17:00:18.144Z,0.2
2022-09-28T17:03:18.273Z,0
2022-09-28T17:06:18.146Z,0
2022-09-28T17:09:21.403Z,0.3
2022-09-28T17:12:18.294Z,0.25
2022-09-28T17:15:18.262Z,0
2022-09-28T17:18:18.337Z,0
2022-09-28T17:21:18.346Z,0
2022-09-28T17:24:20.312Z,0
2022-09-28T17:27:18.185Z,0
2022-09-28T17:30:20.285Z,0
2022-09-28T17:33:18.277Z,0
2022-09-28T17:36:18.182Z,0
2022-09-28T17:39:18.239Z,0
2022-09-28T17:42:18.270Z,0
2022-09-28T17:49:46.781Z,0
2022-09-28T17:50:20.974Z,0
2022-09-28T17:51:18.248Z,0.15
2022-09-28T17:54:18.249Z,0
2022-09-28T17:57:18.295Z,0.2
2022-09-28T18:00:18.242Z,0.5
2022-09-28T18:03:18.293Z,0
2022-09-28T18:06:18.254Z,0
2022-09-28T18:09:18.304Z,0
2022-09-28T18:12:18.254Z,0
2022-09-28T18:15:18.202Z,0
2022-09-28T18:18:18.239Z,0.1
2022-09-28T18:21:18.265Z,0.3
2022-09-28T18:24:18.364Z,0.3
2022-09-28T18:27:18.309Z,0.3
2022-09-28T18:30:18.261Z,0.2
2022-09-28T18:33:18.160Z,0.25
2022-09-28T18:36:18.250Z,0.35
2022-09-28T18:39:18.422Z,0
2022-09-28T18:42:18.276Z,0
2022-09-28T18:45:18.279Z,0
2022-09-28T18:48:18.398Z,0.15
2022-09-28T18:51:18.454Z,0.25
2022-09-28T18:54:18.260Z,0
2022-09-28T18:57:18.266Z,0.25
2022-09-28T19:00:18.348Z,0.25
2022-09-28T19:03:18.773Z,0.35
2022-09-28T19:06:18.336Z,0.75
2022-09-28T19:09:19.214Z,0.55
2022-09-28T19:12:19.488Z,0.8
2022-09-28T19:15:19.373Z,0.6
2022-09-28T19:18:18.205Z,0.4
2022-09-28T19:21:18.616Z,0.35
2022-09-28T19:24:19.454Z,0.5
2022-09-28T19:27:19.384Z,0.55
2022-09-28T19:30:19.578Z,0.55
2022-09-28T19:33:19.209Z,0.55
2022-09-28T19:36:20.260Z,0.85
2022-09-28T19:39:18.250Z,0.5
2022-09-28T19:42:18.295Z,0.6
2022-09-28T19:45:19.703Z,1
2022-09-28T19:48:19.108Z,0.4
2022-09-28T19:51:18.773Z,0.95
2022-09-28T19:54:19.305Z,0.65
2022-09-28T19:57:19.665Z,0.95
2022-09-28T20:00:18.339Z,0.3
2022-09-28T20:03:19.377Z,0.55
2022-09-28T20:06:19.613Z,0.65
2022-09-28T20:09:19.318Z,0.5
2022-09-28T20:12:19.718Z,0.3
2022-09-28T20:15:19.538Z,1.7
2022-09-28T20:18:19.722Z,1.15
2022-09-28T20:21:20.209Z,1.45
2022-09-28T20:24:19.851Z,1.05
2022-09-28T20:27:18.384Z,0.8
2022-09-28T20:30:19.280Z,0.85
2022-09-28T20:33:28.719Z,0.95
2022-09-28T20:36:18.346Z,1.1
2022-09-28T20:39:19.439Z,0.8
2022-09-28T20:42:18.347Z,0.85
2022-09-28T20:45:19.785Z,0.95
2022-09-28T20:48:18.631Z,0.9
2022-09-28T20:51:19.060Z,1.05
2022-09-28T20:54:19.305Z,0.75
2022-09-28T20:57:19.293Z,0.55
2022-09-28T21:00:19.204Z,1.2
2022-09-28T21:03:19.657Z,1.95
2022-09-28T21:06:19.373Z,1
2022-09-28T21:09:19.771Z,0.9
2022-09-28T21:12:19.395Z,0.85
2022-09-28T21:15:19.915Z,0.95
2022-09-28T21:18:19.505Z,0.8
2022-09-28T21:21:19.127Z,1.05
2022-09-28T21:24:20.083Z,1
2022-09-28T21:27:19.386Z,1.05
2022-09-28T21:30:19.825Z,1.15
2022-09-28T21:33:19.065Z,1.6
2022-09-28T21:36:18.839Z,1.35
2022-09-28T21:39:19.762Z,0.75
2022-09-28T21:42:18.410Z,1.3
2022-09-28T21:45:18.416Z,1.25
2022-09-28T21:48:18.507Z,1.15
2022-09-28T21:51:18.399Z,0.7
2022-09-28T21:54:18.506Z,0.65
2022-09-28T21:57:18.470Z,0.8
2022-09-28T22:00:18.406Z,1.05
2022-09-28T22:03:18.408Z,1.2
2022-09-28T22:06:18.536Z,1.2
2022-09-28T22:09:18.419Z,1.05
2022-09-28T22:12:18.427Z,0.8
2022-09-28T22:15:18.415Z,0.8
2022-09-28T22:18:18.412Z,0.8
2022-09-28T22:21:18.396Z,1.2
2022-09-28T22:24:18.550Z,1.35
2022-09-28T22:27:18.407Z,0.5
2022-09-28T22:30:18.434Z,0.8
2022-09-28T22:33:18.425Z,0.95
2022-09-28T22:36:18.465Z,0.65
2022-09-28T22:39:18.416Z,1.25
2022-09-28T22:42:18.464Z,1
2022-09-28T22:45:18.430Z,1
2022-09-28T22:48:18.455Z,1.1
2022-09-28T22:51:18.447Z,1.15
2022-09-28T22:54:18.531Z,0.95
2022-09-28T22:57:18.462Z,1
2022-09-28T23:00:18.567Z,0.75
2022-09-28T23:03:18.606Z,1
2022-09-28T23:06:18.541Z,0.8
2022-09-28T23:09:18.589Z,0.75
2022-09-28T23:12:18.470Z,0.8
2022-09-28T23:15:18.616Z,0.95
2022-09-28T23:18:18.462Z,0.55
2022-09-28T23:21:18.484Z,1
2022-09-28T23:24:18.502Z,0.75
2022-09-28T23:27:18.520Z,0.7
2022-09-28T23:30:18.507Z,0.45
2022-09-28T23:33:18.471Z,0.5
2022-09-28T23:36:18.572Z,0.55
2022-09-28T23:39:18.697Z,0.6
2022-09-28T23:42:18.490Z,0.55
2022-09-28T23:45:18.515Z,0.65
2022-09-28T23:48:18.480Z,0.35
2022-09-28T23:51:18.541Z,0.2
2022-09-28T23:54:18.492Z,0.15
2022-09-28T23:57:18.555Z,0
